createdAt,value
2018-03-29T00:00:38.827Z,1.80
2018-03-29T00:03:07.101Z,1.80
2018-03-29T00:05:36.195Z,1.80
2018-03-29T00:08:04.456Z,1.80
2018-03-29T00:10:32.719Z,1.80
2018-03-29T00:13:01.034Z,1.80
2018-03-29T00:15:30.476Z,1.70
2018-03-29T00:18:02.483Z,1.90
2018-03-29T00:20:30.715Z,1.90
2018-03-29T00:23:00.532Z,1.90
2018-03-29T00:25:32.462Z,1.80
2018-03-29T00:28:03.542Z,1.90
2018-03-29T00:30:32.627Z,1.90
2018-03-29T00:33:00.866Z,1.90
2018-03-29T00:35:29.227Z,1.90
2018-03-29T00:37:57.473Z,2.00
2018-03-29T00:40:25.791Z,2.10
2018-03-29T00:42:54.075Z,1.90
2018-03-29T00:45:22.397Z,1.80
2018-03-29T00:47:51.593Z,1.80
2018-03-29T00:50:20.005Z,1.80
2018-03-29T00:52:49.436Z,1.80
2018-03-29T00:55:17.719Z,1.80
2018-03-29T00:57:47.220Z,1.80
2018-03-29T01:00:15.509Z,1.80
2018-03-29T01:02:43.772Z,1.90
2018-03-29T01:05:15.754Z,2.00
2018-03-29T01:07:44.100Z,2.00
2018-03-29T01:10:12.494Z,1.90
2018-03-29T01:12:41.037Z,1.90
2018-03-29T01:15:10.582Z,1.90
2018-03-29T01:17:38.813Z,1.90
2018-03-29T01:20:08.307Z,2.00
2018-03-29T01:22:37.326Z,1.90
2018-03-29T01:25:05.578Z,1.90
2018-03-29T01:27:33.838Z,1.90
2018-03-29T01:30:02.419Z,1.90
2018-03-29T01:32:38.397Z,1.90
2018-03-29T01:35:06.666Z,1.90
2018-03-29T01:37:37.857Z,1.90
2018-03-29T01:40:07.443Z,1.80
2018-03-29T01:42:35.708Z,1.80
2018-03-29T01:45:04.009Z,1.70
2018-03-29T01:47:32.276Z,1.80
2018-03-29T01:50:03.372Z,1.80
2018-03-29T01:52:31.669Z,1.70
2018-03-29T01:54:59.993Z,1.80
2018-03-29T01:57:28.250Z,1.90
2018-03-29T01:59:56.626Z,1.90
2018-03-29T02:02:24.988Z,1.90
2018-03-29T02:04:53.238Z,2.00
2018-03-29T02:07:21.585Z,1.90
2018-03-29T02:09:51.447Z,1.90
2018-03-29T02:12:19.844Z,1.90
2018-03-29T02:14:49.280Z,2.00
2018-03-29T02:17:18.319Z,1.90
2018-03-29T02:19:46.551Z,2.00
2018-03-29T02:22:14.839Z,2.00
2018-03-29T02:24:44.656Z,2.00
2018-03-29T02:27:12.917Z,2.00
2018-03-29T02:29:42.237Z,2.00
2018-03-29T02:32:11.248Z,1.90
2018-03-29T02:34:39.531Z,1.80
2018-03-29T02:37:07.779Z,1.80
2018-03-29T02:39:36.900Z,1.80
2018-03-29T02:42:05.186Z,1.90
2018-03-29T02:47:09.691Z,1.90
2018-03-29T02:49:38.728Z,2.10
2018-03-29T02:52:07.054Z,2.10
2018-03-29T02:54:35.336Z,2.10
2018-03-29T02:57:07.311Z,2.20
2018-03-29T02:59:35.586Z,2.20
2018-03-29T03:02:04.648Z,2.10
2018-03-29T03:04:32.874Z,2.20
2018-03-29T03:07:02.094Z,2.10
2018-03-29T03:09:30.366Z,2.20
2018-03-29T03:11:58.658Z,2.20
2018-03-29T03:14:28.038Z,2.30
2018-03-29T03:16:56.272Z,2.30
2018-03-29T03:19:25.333Z,2.20
2018-03-29T03:21:53.603Z,2.20
2018-03-29T03:24:21.859Z,2.30
2018-03-29T03:26:50.266Z,2.30
2018-03-29T03:29:20.246Z,2.40
2018-03-29T03:31:48.482Z,2.40
2018-03-29T03:34:17.735Z,2.50
2018-03-29T03:36:46.045Z,2.50
2018-03-29T03:39:15.135Z,2.40
2018-03-29T03:41:43.490Z,2.40
2018-03-29T03:44:12.637Z,2.30
2018-03-29T03:46:42.094Z,2.40
2018-03-29T03:49:10.371Z,2.40
2018-03-29T03:51:39.818Z,2.50
2018-03-29T03:54:08.854Z,2.50
2018-03-29T03:56:37.992Z,2.50
2018-03-29T03:59:06.236Z,2.50
2018-03-29T04:01:34.506Z,2.40
2018-03-29T04:04:02.839Z,2.50
2018-03-29T04:06:31.886Z,2.50
2018-03-29T04:09:00.130Z,2.50
2018-03-29T04:11:28.425Z,2.60
2018-03-29T04:13:57.589Z,2.60
2018-03-29T04:16:25.958Z,2.60
2018-03-29T04:18:56.161Z,2.50
2018-03-29T04:21:24.427Z,2.50
2018-03-29T04:23:52.702Z,2.50
2018-03-29T04:26:20.982Z,2.60
2018-03-29T04:28:50.012Z,2.70
2018-03-29T04:31:18.313Z,2.60
2018-03-29T04:33:46.564Z,2.60
2018-03-29T04:36:15.621Z,2.70
2018-03-29T04:38:43.959Z,2.70
2018-03-29T04:41:12.206Z,2.70
2018-03-29T04:43:40.461Z,2.70
2018-03-29T04:46:08.762Z,2.50
2018-03-29T04:48:39.102Z,2.50
2018-03-29T04:51:07.513Z,2.50
2018-03-29T04:53:35.904Z,2.50
2018-03-29T04:56:04.216Z,2.50
2018-03-29T04:58:32.589Z,2.50
2018-03-29T05:01:01.671Z,2.60
2018-03-29T05:03:29.954Z,2.60
2018-03-29T05:05:58.995Z,2.70
2018-03-29T05:08:28.528Z,2.70
2018-03-29T05:10:56.808Z,2.70
2018-03-29T05:13:25.087Z,2.70
2018-03-29T05:15:53.374Z,2.60
2018-03-29T05:18:21.665Z,2.60
2018-03-29T05:20:50.741Z,2.50
2018-03-29T05:23:19.801Z,2.60
2018-03-29T05:25:48.966Z,2.50
2018-03-29T05:28:17.244Z,2.60
2018-03-29T05:30:45.549Z,2.60
2018-03-29T05:33:14.053Z,2.50
2018-03-29T05:35:42.301Z,2.50
2018-03-29T05:38:10.576Z,2.50
2018-03-29T05:40:38.863Z,2.60
2018-03-29T05:43:07.176Z,2.60
2018-03-29T05:45:36.220Z,2.70
2018-03-29T05:48:04.567Z,2.70
2018-03-29T05:50:33.569Z,2.60
2018-03-29T05:53:01.869Z,2.60
2018-03-29T05:55:30.151Z,2.70
2018-03-29T05:57:58.392Z,2.70
2018-03-29T06:00:26.676Z,2.80
2018-03-29T06:02:55.397Z,2.90
2018-03-29T06:05:24.821Z,2.90
2018-03-29T06:07:53.890Z,2.90
2018-03-29T06:10:22.178Z,3.00
2018-03-29T06:12:50.564Z,2.90
2018-03-29T06:15:19.627Z,3.00
2018-03-29T06:17:53.485Z,3.00
2018-03-29T06:20:22.670Z,3.00
2018-03-29T06:22:52.272Z,3.00
2018-03-29T06:25:20.597Z,3.00
2018-03-29T06:27:48.962Z,3.10
2018-03-29T06:30:17.277Z,3.10
2018-03-29T06:32:45.557Z,3.10
2018-03-29T06:35:13.858Z,3.10
2018-03-29T06:37:42.143Z,3.20
2018-03-29T06:40:10.425Z,3.10
2018-03-29T06:42:38.725Z,3.20
2018-03-29T06:45:07.786Z,3.20
2018-03-29T06:47:36.214Z,3.20
2018-03-29T06:50:05.772Z,3.30
2018-03-29T06:52:35.441Z,3.50
2018-03-29T06:55:03.791Z,3.40
2018-03-29T06:57:33.631Z,3.70
2018-03-29T07:00:01.896Z,3.70
2018-03-29T07:02:32.073Z,3.90
2018-03-29T07:05:01.939Z,3.90
2018-03-29T07:07:30.231Z,3.90
2018-03-29T07:10:02.248Z,4.00
2018-03-29T07:12:33.009Z,4.10
2018-03-29T07:15:01.356Z,4.10
2018-03-29T07:17:31.581Z,4.20
2018-03-29T07:20:00.595Z,4.30
2018-03-29T07:22:29.270Z,4.30
2018-03-29T07:24:57.602Z,4.40
2018-03-29T07:27:25.914Z,4.40
2018-03-29T07:29:54.276Z,4.40
2018-03-29T07:32:23.319Z,4.50
2018-03-29T07:34:52.426Z,4.50
2018-03-29T07:37:20.694Z,4.60
2018-03-29T07:39:49.137Z,4.80
2018-03-29T07:42:20.410Z,4.90
2018-03-29T07:44:48.776Z,4.90
2018-03-29T07:47:17.104Z,4.90
2018-03-29T07:49:45.350Z,4.90
2018-03-29T07:52:13.676Z,4.80
2018-03-29T07:54:42.790Z,5.00
2018-03-29T07:57:11.816Z,5.00
2018-03-29T07:59:40.224Z,4.90
2018-03-29T08:02:08.497Z,5.10
2018-03-29T08:04:36.757Z,5.20
2018-03-29T08:07:05.198Z,5.20
2018-03-29T08:09:34.258Z,5.40
2018-03-29T08:12:03.319Z,5.50
2018-03-29T08:14:31.846Z,5.50
2018-03-29T08:17:00.895Z,5.70
2018-03-29T08:19:29.287Z,5.70
2018-03-29T08:21:59.251Z,5.70
2018-03-29T08:24:27.538Z,5.80
2018-03-29T08:26:55.808Z,6.00
2018-03-29T08:29:24.127Z,6.00
2018-03-29T08:31:52.638Z,6.10
2018-03-29T08:34:20.945Z,6.20
2018-03-29T08:36:49.320Z,6.10
2018-03-29T08:39:18.453Z,6.00
2018-03-29T08:41:47.866Z,5.90
2018-03-29T08:44:16.133Z,6.10
2018-03-29T08:46:44.448Z,6.00
2018-03-29T08:49:13.502Z,6.10
2018-03-29T08:51:41.829Z,6.10
2018-03-29T08:54:10.854Z,5.90
2018-03-29T08:56:39.092Z,5.90
2018-03-29T08:59:08.183Z,6.20
2018-03-29T09:01:37.200Z,6.00
2018-03-29T09:04:07.032Z,6.10
2018-03-29T09:06:35.290Z,6.10
2018-03-29T09:09:03.596Z,6.30
2018-03-29T09:11:31.879Z,6.60
2018-03-29T09:14:00.184Z,6.70
2018-03-29T09:16:28.463Z,7.00
2018-03-29T09:18:57.518Z,7.00
2018-03-29T09:21:25.803Z,6.90
2018-03-29T09:23:54.102Z,7.10
2018-03-29T09:26:22.507Z,7.50
2018-03-29T09:28:50.800Z,7.80
2018-03-29T09:31:19.100Z,7.90
2018-03-29T09:33:47.378Z,8.20
2018-03-29T09:36:15.647Z,8.30
2018-03-29T09:38:43.909Z,8.20
2018-03-29T09:41:12.184Z,8.00
2018-03-29T09:43:40.479Z,7.90
2018-03-29T09:46:08.859Z,7.90
2018-03-29T09:48:37.144Z,8.00
2018-03-29T09:51:05.445Z,8.20
2018-03-29T09:53:33.723Z,8.30
2018-03-29T09:56:02.839Z,8.10
2018-03-29T09:58:31.079Z,8.40
2018-03-29T10:01:04.993Z,8.70
2018-03-29T10:03:43.164Z,8.90
2018-03-29T10:06:17.036Z,9.00
2018-03-29T10:08:46.059Z,8.90
2018-03-29T10:11:14.330Z,8.90
2018-03-29T10:13:42.631Z,8.60
2018-03-29T10:16:10.957Z,8.40
2018-03-29T10:18:40.027Z,8.60
2018-03-29T10:21:08.409Z,8.60
2018-03-29T10:23:37.517Z,8.90
2018-03-29T10:26:05.890Z,9.10
2018-03-29T10:28:35.689Z,9.40
2018-03-29T10:31:04.019Z,9.40
2018-03-29T10:33:32.377Z,9.50
2018-03-29T10:36:01.534Z,9.30
2018-03-29T10:38:31.415Z,9.40
2018-03-29T10:40:59.805Z,9.40
2018-03-29T10:43:28.109Z,9.30
2018-03-29T10:45:56.443Z,9.10
2018-03-29T10:48:24.785Z,8.70
2018-03-29T10:50:54.325Z,8.60
2018-03-29T10:53:22.770Z,8.70
2018-03-29T10:55:51.831Z,8.80
2018-03-29T10:58:20.090Z,8.80
2018-03-29T11:00:48.380Z,8.90
2018-03-29T11:03:16.737Z,8.90
2018-03-29T11:05:44.985Z,8.50
2018-03-29T11:08:14.902Z,8.30
2018-03-29T11:10:43.975Z,8.20
2018-03-29T11:13:13.138Z,8.10
2018-03-29T11:15:41.509Z,8.20
2018-03-29T11:18:09.797Z,8.20
2018-03-29T11:20:39.339Z,8.10
2018-03-29T11:23:07.616Z,8.10
2018-03-29T11:25:36.645Z,8.40
2018-03-29T11:28:04.919Z,8.40
2018-03-29T11:30:33.186Z,8.60
2018-03-29T11:33:02.214Z,8.50
2018-03-29T11:35:30.495Z,8.40
2018-03-29T11:37:58.782Z,8.40
2018-03-29T11:40:28.285Z,8.20
2018-03-29T11:42:56.550Z,8.20
2018-03-29T11:45:28.549Z,8.40
2018-03-29T11:47:57.643Z,8.40
2018-03-29T11:50:25.970Z,8.70
2018-03-29T11:52:54.275Z,8.70
2018-03-29T11:55:22.571Z,8.70
2018-03-29T11:57:50.956Z,8.70
2018-03-29T12:00:19.234Z,8.20
2018-03-29T12:02:47.523Z,8.00
2018-03-29T12:05:17.897Z,8.00
2018-03-29T12:07:46.177Z,8.00
2018-03-29T12:10:14.742Z,7.80
2018-03-29T12:12:44.202Z,7.80
2018-03-29T12:15:12.496Z,8.00
2018-03-29T12:17:42.286Z,8.00
2018-03-29T12:20:11.288Z,8.10
2018-03-29T12:22:40.338Z,8.20
2018-03-29T12:25:08.784Z,8.10
2018-03-29T12:27:37.144Z,8.20
2018-03-29T12:30:08.256Z,8.60
2018-03-29T12:32:36.650Z,8.40
2018-03-29T12:35:04.901Z,8.40
2018-03-29T12:37:34.307Z,8.30
2018-03-29T12:40:02.675Z,8.10
2018-03-29T12:42:31.131Z,8.30
2018-03-29T12:44:59.482Z,8.40
2018-03-29T12:47:27.694Z,8.30
2018-03-29T12:49:55.978Z,8.40
2018-03-29T12:52:24.242Z,8.40
2018-03-29T12:55:04.331Z,8.50
2018-03-29T12:57:44.575Z,8.70
2018-03-29T13:00:12.861Z,8.80
2018-03-29T13:02:41.119Z,8.80
2018-03-29T13:05:09.432Z,8.60
2018-03-29T13:07:38.517Z,8.50
2018-03-29T13:10:07.662Z,8.50
2018-03-29T13:12:37.113Z,8.30
2018-03-29T13:15:05.506Z,8.20
2018-03-29T13:17:34.565Z,8.20
2018-03-29T13:20:02.857Z,8.20
2018-03-29T13:22:32.399Z,8.10
2018-03-29T13:25:01.452Z,7.80
2018-03-29T13:27:29.719Z,7.80
2018-03-29T13:29:59.269Z,7.80
2018-03-29T13:32:28.284Z,7.80
2018-03-29T13:34:56.514Z,7.90
2018-03-29T13:37:24.885Z,7.90
2018-03-29T13:39:53.146Z,7.90
2018-03-29T13:42:21.536Z,8.00
2018-03-29T13:44:49.798Z,8.20
2018-03-29T13:47:18.054Z,8.50
2018-03-29T13:49:46.381Z,8.40
2018-03-29T13:52:15.454Z,8.40
2018-03-29T13:54:43.723Z,8.40
2018-03-29T13:57:13.232Z,8.40
2018-03-29T13:59:41.627Z,8.60
2018-03-29T14:02:11.054Z,8.60
2018-03-29T14:04:40.078Z,8.30
2018-03-29T14:07:08.506Z,8.30
2018-03-29T14:09:36.777Z,8.20
2018-03-29T14:12:05.029Z,8.40
2018-03-29T14:14:35.073Z,8.40
2018-03-29T14:17:06.310Z,8.40
2018-03-29T14:19:34.610Z,8.40
2018-03-29T14:22:04.604Z,8.30
2018-03-29T14:24:32.918Z,8.30
2018-03-29T14:27:01.972Z,8.50
2018-03-29T14:29:30.242Z,8.60
2018-03-29T14:31:58.527Z,8.80
2018-03-29T14:34:26.895Z,8.60
2018-03-29T14:36:55.287Z,8.50
2018-03-29T14:39:23.630Z,8.40
2018-03-29T14:41:51.978Z,8.40
2018-03-29T14:44:21.030Z,8.40
2018-03-29T14:46:49.428Z,8.30
2018-03-29T14:49:17.674Z,8.40
2018-03-29T14:51:45.962Z,8.50
2018-03-29T14:54:14.342Z,8.60
2018-03-29T14:56:43.562Z,8.40
2018-03-29T14:59:12.604Z,8.30
2018-03-29T15:01:40.891Z,8.30
2018-03-29T15:04:09.220Z,8.10
2018-03-29T15:06:38.271Z,8.00
2018-03-29T15:09:06.634Z,7.90
2018-03-29T15:11:34.929Z,7.80
2018-03-29T15:14:03.414Z,7.60
2018-03-29T15:16:32.640Z,7.40
2018-03-29T15:19:02.190Z,7.40
2018-03-29T15:21:30.520Z,7.20
2018-03-29T15:24:00.712Z,6.80
2018-03-29T15:26:31.813Z,6.70
2018-03-29T15:29:00.074Z,6.60
2018-03-29T15:31:29.090Z,6.70
2018-03-29T15:33:57.392Z,6.70
2018-03-29T15:36:25.644Z,6.80
2018-03-29T15:38:54.028Z,6.70
2018-03-29T15:41:25.314Z,6.70
2018-03-29T15:43:53.622Z,6.70
2018-03-29T15:46:21.911Z,6.70
2018-03-29T15:48:50.189Z,6.70
2018-03-29T15:51:18.447Z,6.70
2018-03-29T15:53:46.709Z,6.50
2018-03-29T15:56:16.099Z,6.50
2018-03-29T15:58:44.403Z,6.50
2018-03-29T16:01:12.681Z,6.50
2018-03-29T16:03:40.965Z,6.40
2018-03-29T16:06:09.352Z,6.50
2018-03-29T16:08:38.590Z,6.50
2018-03-29T16:11:07.009Z,6.50
2018-03-29T16:13:35.318Z,6.50
2018-03-29T16:16:03.569Z,6.60
2018-03-29T16:18:31.909Z,6.40
2018-03-29T16:21:00.161Z,6.40
2018-03-29T16:23:28.462Z,6.30
2018-03-29T16:25:56.819Z,6.20
2018-03-29T16:28:25.155Z,6.00
2018-03-29T16:30:53.437Z,5.90
2018-03-29T16:33:21.881Z,5.90
2018-03-29T16:35:52.217Z,6.00
2018-03-29T16:38:21.975Z,5.90
2018-03-29T16:40:50.313Z,5.90
2018-03-29T16:43:19.375Z,6.10
2018-03-29T16:45:48.788Z,6.00
2018-03-29T16:48:17.063Z,6.00
2018-03-29T16:50:45.391Z,5.90
2018-03-29T16:53:13.873Z,5.80
2018-03-29T16:55:43.473Z,5.60
2018-03-29T16:58:11.804Z,5.50
2018-03-29T17:00:40.170Z,5.30
2018-03-29T17:03:09.398Z,5.20
2018-03-29T17:05:38.469Z,5.00
2018-03-29T17:08:07.619Z,5.00
2018-03-29T17:10:36.420Z,5.00
2018-03-29T17:13:04.771Z,5.00
2018-03-29T17:15:33.078Z,4.90
2018-03-29T17:18:01.484Z,4.90
2018-03-29T17:20:29.758Z,4.90
2018-03-29T17:22:59.676Z,4.80
2018-03-29T17:25:28.113Z,4.70
2018-03-29T17:27:58.145Z,4.70
2018-03-29T17:30:28.213Z,4.60
2018-03-29T17:32:57.300Z,4.40
2018-03-29T17:35:25.666Z,4.40
2018-03-29T17:37:55.511Z,4.20
2018-03-29T17:40:23.873Z,4.20
2018-03-29T17:42:52.975Z,4.20
2018-03-29T17:45:22.207Z,4.10
2018-03-29T17:47:50.535Z,4.00
2018-03-29T17:50:18.826Z,4.00
2018-03-29T17:52:47.896Z,3.70
2018-03-29T17:55:17.156Z,3.70
2018-03-29T17:57:45.429Z,3.60
2018-03-29T18:00:13.744Z,3.50
2018-03-29T18:02:42.782Z,3.30
2018-03-29T18:05:11.123Z,3.30
2018-03-29T18:07:39.459Z,3.30
2018-03-29T18:10:07.755Z,3.30
2018-03-29T18:12:39.867Z,3.20
2018-03-29T18:15:08.993Z,3.10
2018-03-29T18:17:37.354Z,3.10
2018-03-29T18:20:06.415Z,3.20
2018-03-29T18:22:34.762Z,3.20
2018-03-29T18:25:03.063Z,3.30
2018-03-29T18:27:31.334Z,3.40
2018-03-29T18:29:59.636Z,3.40
2018-03-29T18:32:27.887Z,3.50
2018-03-29T18:34:56.161Z,3.50
2018-03-29T18:37:24.446Z,3.50
2018-03-29T18:39:52.756Z,3.50
2018-03-29T18:42:21.826Z,3.60
2018-03-29T18:44:50.118Z,3.60
2018-03-29T18:47:18.523Z,3.60
2018-03-29T18:49:46.920Z,3.50
2018-03-29T18:52:15.258Z,3.60
2018-03-29T18:54:44.284Z,3.70
2018-03-29T18:57:12.568Z,3.70
2018-03-29T18:59:40.873Z,3.70
2018-03-29T19:02:09.543Z,3.80
2018-03-29T19:04:41.643Z,3.80
2018-03-29T19:07:11.640Z,3.80
2018-03-29T19:09:39.930Z,3.70
2018-03-29T19:12:08.195Z,3.60
2018-03-29T19:14:36.496Z,3.60
2018-03-29T19:17:06.395Z,3.40
2018-03-29T19:19:34.742Z,3.40
2018-03-29T19:22:03.041Z,3.20
2018-03-29T19:24:32.048Z,3.10
2018-03-29T19:27:00.833Z,3.20
2018-03-29T19:29:29.128Z,3.10
2018-03-29T19:31:57.636Z,3.10
2018-03-29T19:34:26.036Z,3.00
2018-03-29T19:36:54.308Z,3.10
2018-03-29T19:39:23.469Z,3.20
2018-03-29T19:41:52.080Z,3.10
2018-03-29T19:44:20.388Z,3.00
2018-03-29T19:46:48.709Z,3.10
2018-03-29T19:49:18.183Z,3.00
2018-03-29T19:51:46.480Z,3.00
2018-03-29T19:54:15.040Z,3.00
2018-03-29T19:56:44.433Z,3.10
2018-03-29T19:59:12.706Z,3.00
2018-03-29T20:01:41.802Z,2.80
2018-03-29T20:04:10.087Z,2.80
2018-03-29T20:06:38.460Z,2.70
2018-03-29T20:09:06.753Z,2.60
2018-03-29T20:11:35.051Z,2.50
2018-03-29T20:14:04.238Z,2.40
2018-03-29T20:16:33.279Z,2.40
2018-03-29T20:19:01.611Z,2.30
2018-03-29T20:21:30.804Z,2.20
2018-03-29T20:24:00.653Z,2.10
2018-03-29T20:26:30.691Z,2.10
2018-03-29T20:28:59.436Z,2.10
2018-03-29T20:31:27.792Z,2.00
2018-03-29T20:33:59.838Z,2.00
2018-03-29T20:36:28.893Z,2.00
2018-03-29T20:38:58.119Z,2.00
2018-03-29T20:41:26.454Z,2.00
2018-03-29T20:43:54.780Z,2.00
2018-03-29T20:46:23.184Z,1.90
2018-03-29T20:48:51.466Z,1.90
2018-03-29T20:51:20.538Z,1.90
2018-03-29T20:53:48.967Z,1.80
2018-03-29T20:56:17.327Z,1.80
2018-03-29T20:58:45.637Z,1.80
2018-03-29T21:01:14.010Z,1.80
2018-03-29T21:03:43.104Z,1.70
2018-03-29T21:06:11.402Z,1.70
2018-03-29T21:08:39.751Z,1.70
2018-03-29T21:11:08.005Z,1.70
2018-03-29T21:13:37.084Z,1.60
2018-03-29T21:16:05.396Z,1.60
2018-03-29T21:18:33.721Z,1.60
2018-03-29T21:21:02.001Z,1.60
2018-03-29T21:23:30.281Z,1.60
2018-03-29T21:25:58.589Z,1.60
2018-03-29T21:28:27.543Z,1.60
2018-03-29T21:30:55.809Z,1.60
2018-03-29T21:33:24.169Z,1.60
2018-03-29T21:35:52.665Z,1.50
2018-03-29T21:38:20.920Z,1.50
2018-03-29T21:40:49.175Z,1.40
2018-03-29T21:43:17.594Z,1.40
2018-03-29T21:45:45.897Z,1.30
2018-03-29T21:48:14.223Z,1.30
2018-03-29T21:50:42.466Z,1.30
2018-03-29T21:53:11.527Z,1.20
2018-03-29T21:55:39.845Z,1.20
2018-03-29T21:58:08.123Z,1.20
2018-03-29T22:00:36.389Z,1.30
2018-03-29T22:03:05.457Z,1.30
2018-03-29T22:05:33.702Z,1.30
2018-03-29T22:08:02.040Z,1.30
2018-03-29T22:10:30.302Z,1.20
2018-03-29T22:12:58.625Z,1.20
2018-03-29T22:15:26.907Z,1.20
2018-03-29T22:17:55.282Z,1.10
2018-03-29T22:20:23.538Z,1.20
2018-03-29T22:22:51.966Z,1.10
2018-03-29T22:25:20.487Z,1.10
2018-03-29T22:27:48.777Z,1.10
2018-03-29T22:30:17.147Z,1.10
2018-03-29T22:32:45.438Z,1.10
2018-03-29T22:35:13.731Z,1.10
2018-03-29T22:37:42.047Z,1.10
2018-03-29T22:40:10.358Z,1.00
2018-03-29T22:42:38.660Z,1.00
2018-03-29T22:45:07.689Z,1.00
2018-03-29T22:47:35.993Z,1.00
2018-03-29T22:50:04.257Z,1.00
2018-03-29T22:52:33.372Z,0.90
2018-03-29T22:55:02.816Z,0.90
2018-03-29T22:57:31.082Z,0.90
2018-03-29T22:59:59.347Z,0.90
2018-03-29T23:02:27.855Z,0.80
2018-03-29T23:04:56.149Z,0.80
2018-03-29T23:07:24.466Z,0.80
2018-03-29T23:09:52.718Z,0.80
2018-03-29T23:12:21.775Z,0.80
2018-03-29T23:14:50.029Z,0.70
2018-03-29T23:17:18.290Z,0.80
2018-03-29T23:19:47.842Z,0.70
2018-03-29T23:22:16.243Z,0.70
2018-03-29T23:24:46.487Z,0.70
2018-03-29T23:27:14.766Z,0.70
2018-03-29T23:29:44.060Z,0.60
2018-03-29T23:32:16.069Z,0.60
2018-03-29T23:34:44.352Z,0.60
2018-03-29T23:37:12.607Z,0.60
2018-03-29T23:39:40.904Z,0.60
2018-03-29T23:42:09.171Z,0.50
2018-03-29T23:44:37.474Z,0.50
2018-03-29T23:47:05.744Z,0.60
2018-03-29T23:49:34.054Z,0.60
2018-03-29T23:52:03.131Z,0.50
2018-03-29T23:54:31.389Z,0.50
2018-03-29T23:56:59.674Z,0.50
2018-03-29T23:59:27.947Z,0.40
